createdAt,value
2022-11-21T00:00:08.097Z,99665.59
2022-11-21T00:03:10.805Z,99670.00
2022-11-21T00:06:12.487Z,99666.84
2022-11-21T00:09:13.855Z,99670.34
2022-11-21T00:12:16.504Z,99662.72
2022-11-21T00:15:17.948Z,99658.31
2022-11-21T00:18:19.323Z,99650.81
2022-11-21T00:21:20.816Z,99652.53
2022-11-21T00:24:22.187Z,99657.47
2022-11-21T00:27:23.560Z,99649.69
2022-11-21T00:30:25.561Z,99643.63
2022-11-21T00:33:26.940Z,99639.28
2022-11-21T00:36:28.328Z,99636.59
2022-11-21T00:39:29.755Z,99636.66
2022-11-21T00:42:31.149Z,99640.13
2022-11-21T00:45:32.603Z,99642.66
2022-11-21T00:48:34.031Z,99639.22
2022-11-21T00:51:35.417Z,99642.00
2022-11-21T00:54:36.828Z,99641.97
2022-11-21T00:57:38.303Z,99639.34
2022-11-21T01:00:39.761Z,99636.72
2022-11-21T01:03:42.053Z,99629.50
2022-11-21T01:06:43.478Z,99624.91
2022-11-21T01:09:44.916Z,99615.69
2022-11-21T01:12:46.457Z,99614.53
2022-11-21T01:15:47.944Z,99607.56
2022-11-21T01:18:49.749Z,99620.88
2022-11-21T01:21:51.151Z,99626.13
2022-11-21T01:24:52.530Z,99621.00
2022-11-21T01:27:53.920Z,99626.94
2022-11-21T01:30:55.423Z,99621.63
2022-11-21T01:33:59.034Z,99621.78
2022-11-21T01:37:01.189Z,99605.38
2022-11-21T01:40:02.694Z,99596.38
2022-11-21T01:43:13.498Z,99598.88
2022-11-21T01:46:19.712Z,99592.66
2022-11-21T01:49:27.223Z,99587.69
2022-11-21T01:52:31.791Z,99585.91
2022-11-21T01:55:34.663Z,99578.63
2022-11-21T01:58:38.979Z,99584.59
2022-11-21T02:01:40.635Z,99585.78
2022-11-21T02:04:44.359Z,99581.44
2022-11-21T02:07:48.263Z,99595.56
2022-11-21T02:11:23.396Z,99598.81
2022-11-21T02:14:26.303Z,99602.41
2022-11-21T02:17:30.205Z,99600.59
2022-11-21T02:20:31.865Z,99593.75
2022-11-21T02:23:44.956Z,99599.09
2022-11-21T02:26:48.520Z,99603.69
2022-11-21T02:29:49.894Z,99600.16
2022-11-21T02:32:51.288Z,99593.22
2022-11-21T02:35:57.710Z,99598.50
2022-11-21T02:38:59.445Z,99602.66
2022-11-21T02:42:09.694Z,99605.19
2022-11-21T02:45:25.435Z,99607.03
2022-11-21T02:48:26.826Z,99599.03
2022-11-21T02:51:28.198Z,99599.28
2022-11-21T02:54:29.893Z,99602.72
2022-11-21T02:57:32.071Z,99598.09
2022-11-21T03:00:35.862Z,99594.41
2022-11-21T03:03:37.346Z,99588.53
2022-11-21T03:06:38.953Z,99598.22
2022-11-21T03:09:40.392Z,99593.75
2022-11-21T03:12:43.461Z,99590.16
2022-11-21T03:15:44.836Z,99583.38
2022-11-21T03:18:46.223Z,99589.38
2022-11-21T03:21:47.620Z,99587.69
2022-11-21T03:24:49.017Z,99590.25
2022-11-21T03:27:52.348Z,99586.69
2022-11-21T03:30:53.738Z,99583.06
2022-11-21T03:33:55.115Z,99585.19
2022-11-21T03:36:56.508Z,99586.09
2022-11-21T03:39:57.877Z,99587.75
2022-11-21T03:43:05.079Z,99586.81
2022-11-21T03:46:06.473Z,99595.28
2022-11-21T03:49:08.571Z,99591.31
2022-11-21T03:52:10.007Z,99581.97
2022-11-21T03:55:11.388Z,99575.84
2022-11-21T03:58:12.800Z,99576.06
2022-11-21T04:01:14.998Z,99577.94
2022-11-21T04:04:16.510Z,99580.75
2022-11-21T04:07:17.927Z,99584.19
2022-11-21T04:10:20.782Z,99581.56
2022-11-21T04:13:22.922Z,99582.16
2022-11-21T04:16:24.937Z,99583.91
2022-11-21T04:19:26.321Z,99578.94
2022-11-21T04:22:27.801Z,99576.06
2022-11-21T04:25:29.282Z,99577.03
2022-11-21T04:28:31.269Z,99571.81
2022-11-21T04:31:32.666Z,99573.59
2022-11-21T04:34:34.113Z,99572.88
2022-11-21T04:37:35.594Z,99580.44
2022-11-21T04:40:37.320Z,99580.44
2022-11-21T04:43:38.770Z,99590.72
2022-11-21T04:46:40.148Z,99593.47
2022-11-21T04:49:41.576Z,99580.44
2022-11-21T04:52:49.042Z,99582.16
2022-11-21T04:55:50.428Z,99577.22
2022-11-21T04:58:53.185Z,99580.41
2022-11-21T05:01:54.635Z,99586.53
2022-11-21T05:04:56.019Z,99580.53
2022-11-21T05:07:57.604Z,99580.25
2022-11-21T05:11:17.387Z,99584.00
2022-11-21T05:14:18.944Z,99580.44
2022-11-21T05:17:20.369Z,99567.94
2022-11-21T05:20:21.769Z,99565.53
2022-11-21T05:23:23.343Z,99562.72
2022-11-21T05:26:24.744Z,99569.91
2022-11-21T05:29:28.227Z,99570.88
2022-11-21T05:32:29.773Z,99575.84
2022-11-21T05:35:31.257Z,99571.66
2022-11-21T05:38:32.638Z,99564.59
2022-11-21T05:41:34.033Z,99568.81
2022-11-21T05:44:35.455Z,99569.88
2022-11-21T05:47:37.083Z,99576.63
2022-11-21T05:50:38.549Z,99572.53
2022-11-21T05:53:40.397Z,99581.97
2022-11-21T05:56:41.957Z,99578.13
2022-11-21T05:59:43.338Z,99577.31
2022-11-21T06:03:03.220Z,99577.38
2022-11-21T06:06:13.457Z,99581.44
2022-11-21T06:09:14.853Z,99579.66
2022-11-21T06:12:16.323Z,99582.47
2022-11-21T06:15:17.770Z,99583.06
2022-11-21T06:18:19.572Z,99577.56
2022-11-21T06:21:26.168Z,99572.38
2022-11-21T06:24:27.824Z,99585.75
2022-11-21T06:27:30.007Z,99582.78
2022-11-21T06:30:31.421Z,99576.91
2022-11-21T06:33:33.782Z,99585.41
2022-11-21T06:36:35.256Z,99593.50
2022-11-21T06:39:36.638Z,99585.41
2022-11-21T06:42:38.237Z,99600.81
2022-11-21T06:45:39.761Z,99589.19
2022-11-21T06:48:42.005Z,99587.53
2022-11-21T06:51:43.390Z,99607.66
2022-11-21T06:54:44.767Z,99602.72
2022-11-21T06:57:46.187Z,99603.44
2022-11-21T07:00:48.759Z,99606.38
2022-11-21T07:03:50.353Z,99607.06
2022-11-21T07:06:51.727Z,99604.50
2022-11-21T07:09:53.138Z,99604.03
2022-11-21T07:13:21.776Z,99595.25
2022-11-21T07:16:26.197Z,99594.56
2022-11-21T07:19:28.203Z,99604.09
2022-11-21T07:22:29.876Z,99606.44
2022-11-21T07:25:36.291Z,99602.91
2022-11-21T07:28:38.251Z,99600.41
2022-11-21T07:31:39.655Z,99602.06
2022-11-21T07:34:41.092Z,99600.91
2022-11-21T07:37:42.455Z,99598.50
2022-11-21T07:40:43.876Z,99602.66
2022-11-21T07:43:45.285Z,99601.47
2022-11-21T07:46:46.675Z,99604.53
2022-11-21T07:49:48.073Z,99608.22
2022-11-21T07:52:49.461Z,99621.97
2022-11-21T07:55:50.854Z,99624.22
2022-11-21T07:58:53.347Z,99620.72
2022-11-21T08:01:54.838Z,99620.63
2022-11-21T08:04:56.410Z,99615.28
2022-11-21T08:07:57.876Z,99616.19
2022-11-21T08:11:03.766Z,99616.44
2022-11-21T08:14:05.189Z,99622.38
2022-11-21T08:17:07.124Z,99617.81
2022-11-21T08:20:09.155Z,99612.53
2022-11-21T08:23:11.012Z,99624.09
2022-11-21T08:26:12.482Z,99621.22
2022-11-21T08:29:17.071Z,99623.97
2022-11-21T08:32:18.535Z,99620.16
2022-11-21T08:35:20.003Z,99610.41
2022-11-21T08:38:21.395Z,99605.66
2022-11-21T08:41:55.241Z,99609.25
2022-11-21T08:44:56.690Z,99612.22
2022-11-21T08:47:58.185Z,99606.41
2022-11-21T08:51:00.115Z,99602.59
2022-11-21T08:54:01.859Z,99596.16
2022-11-21T08:57:03.457Z,99597.78
2022-11-21T09:00:05.846Z,99600.28
2022-11-21T09:03:07.352Z,99597.59
2022-11-21T09:06:09.066Z,99593.09
2022-11-21T09:09:10.577Z,99587.59
2022-11-21T09:12:12.075Z,99585.41
2022-11-21T09:15:32.007Z,99577.28
2022-11-21T09:18:33.776Z,99583.03
2022-11-21T09:21:35.192Z,99577.59
2022-11-21T09:24:36.949Z,99577.44
2022-11-21T09:27:38.390Z,99573.72
2022-11-21T09:30:40.915Z,99576.19
2022-11-21T09:33:42.321Z,99572.38
2022-11-21T09:36:43.725Z,99583.53
2022-11-21T09:39:45.108Z,99565.31
2022-11-21T09:43:18.074Z,99564.53
2022-11-21T09:46:25.396Z,99560.34
2022-11-21T09:49:27.524Z,99549.81
2022-11-21T09:52:52.774Z,99554.47
2022-11-21T09:56:10.723Z,99550.53
2022-11-21T09:59:32.147Z,99549.19
2022-11-21T10:02:33.772Z,99538.81
2022-11-21T10:05:43.619Z,99536.16
2022-11-21T10:08:55.845Z,99523.94
2022-11-21T10:12:39.565Z,99517.19
2022-11-21T10:16:03.588Z,99501.50
2022-11-21T10:19:11.145Z,99501.63
2022-11-21T10:22:38.284Z,99509.31
2022-11-21T10:25:44.492Z,99506.56
2022-11-21T10:29:11.908Z,99495.84
2022-11-21T10:32:23.216Z,99494.53
2022-11-21T10:35:39.705Z,99486.16
2022-11-21T10:38:43.354Z,99489.09
2022-11-21T10:41:53.219Z,99489.59
2022-11-21T10:45:14.172Z,99483.91
2022-11-21T10:48:15.548Z,99476.28
2022-11-21T10:51:27.420Z,99466.75
2022-11-21T10:54:35.097Z,99460.53
2022-11-21T10:57:41.007Z,99441.97
2022-11-21T11:00:57.475Z,99438.78
2022-11-21T11:04:45.601Z,99431.25
2022-11-21T11:07:32.369Z,99427.53
2022-11-21T11:10:39.540Z,99428.84
2022-11-21T11:14:13.015Z,99420.03
2022-11-21T11:17:15.018Z,99413.47
2022-11-21T11:20:32.708Z,99405.63
2022-11-21T11:23:34.264Z,99403.28
2022-11-21T11:27:00.313Z,99385.25
2022-11-21T11:30:07.269Z,99388.56
2022-11-21T11:33:33.971Z,99374.84
2022-11-21T11:36:48.777Z,99369.72
2022-11-21T11:40:04.151Z,99366.53
2022-11-21T11:43:44.217Z,99357.25
2022-11-21T11:47:06.936Z,99353.38
2022-11-21T11:50:17.229Z,99345.31
2022-11-21T11:53:22.943Z,99337.31
2022-11-21T11:56:34.690Z,99345.16
2022-11-21T11:59:45.198Z,99341.59
2022-11-21T12:03:08.440Z,99332.00
2022-11-21T12:06:17.862Z,99326.72
2022-11-21T12:09:34.544Z,99320.28
2022-11-21T12:12:39.222Z,99316.78
2022-11-21T12:15:49.281Z,99310.78
2022-11-21T12:19:15.160Z,99297.75
2022-11-21T12:22:16.548Z,99292.34
2022-11-21T12:25:23.514Z,99286.22
2022-11-21T12:28:37.220Z,99286.91
2022-11-21T12:31:58.593Z,99277.53
2022-11-21T12:35:24.835Z,99273.78
2022-11-21T12:39:00.320Z,99267.16
2022-11-21T12:42:23.453Z,99265.50
2022-11-21T12:45:41.285Z,99260.03
2022-11-21T12:49:12.228Z,99252.00
2022-11-21T12:53:05.675Z,99253.44
2022-11-21T12:56:19.240Z,99242.22
2022-11-21T12:59:23.305Z,99232.50
2022-11-21T13:02:45.770Z,99231.47
2022-11-21T13:05:51.513Z,99227.50
2022-11-21T13:08:55.111Z,99209.38
2022-11-21T13:12:29.948Z,99214.22
2022-11-21T13:15:38.719Z,99198.13
2022-11-21T13:18:45.599Z,99195.19
2022-11-21T13:21:49.254Z,99190.09
2022-11-21T13:24:56.338Z,99190.31
2022-11-21T13:28:23.653Z,99173.16
2022-11-21T13:31:33.083Z,99175.22
2022-11-21T13:34:38.350Z,99173.50
2022-11-21T13:38:06.690Z,99173.50
2022-11-21T13:41:26.629Z,99167.38
2022-11-21T13:44:30.822Z,99167.38
2022-11-21T13:47:55.755Z,99157.81
2022-11-21T13:51:25.708Z,99144.06
2022-11-21T13:54:39.684Z,99148.47
2022-11-21T13:57:44.056Z,99135.66
2022-11-21T14:01:09.250Z,99136.22
2022-11-21T14:04:21.731Z,99125.00
2022-11-21T14:07:27.448Z,99120.91
2022-11-21T14:10:33.948Z,99123.78
2022-11-21T14:13:38.482Z,99116.47
2022-11-21T14:16:47.802Z,99101.47
2022-11-21T14:19:51.059Z,99103.44
2022-11-21T14:23:05.072Z,99103.88
2022-11-21T14:26:14.049Z,99097.88
2022-11-21T14:29:38.042Z,99085.28
2022-11-21T14:32:40.413Z,99092.50
2022-11-21T14:35:41.913Z,99085.53
2022-11-21T14:39:02.222Z,99082.13
2022-11-21T14:42:11.087Z,99065.88
2022-11-21T14:45:22.894Z,99068.66
2022-11-21T14:48:29.436Z,99048.72
2022-11-21T14:51:30.886Z,99043.13
2022-11-21T14:54:39.875Z,99038.84
2022-11-21T14:57:43.129Z,99026.66
2022-11-21T15:01:18.945Z,99006.66
2022-11-21T15:04:26.836Z,99002.94
2022-11-21T15:07:35.078Z,98999.22
2022-11-21T15:10:37.014Z,98980.50
2022-11-21T15:14:06.664Z,98972.69
2022-11-21T15:17:05.969Z,98965.81
2022-11-21T15:20:20.118Z,98941.69
2022-11-21T15:23:41.625Z,98932.25
2022-11-21T15:26:43.105Z,98940.88
2022-11-21T15:29:44.493Z,98936.72
2022-11-21T15:33:01.456Z,98923.94
2022-11-21T15:36:12.713Z,98917.41
2022-11-21T15:39:21.537Z,98902.53
2022-11-21T15:42:32.012Z,98888.84
2022-11-21T15:45:33.417Z,98885.44
2022-11-21T15:48:34.804Z,98867.22
2022-11-21T15:52:10.409Z,98863.97
2022-11-21T15:55:17.992Z,98845.91
2022-11-21T15:58:19.844Z,98847.00
2022-11-21T16:01:26.456Z,98830.16
2022-11-21T16:04:27.939Z,98820.75
2022-11-21T16:07:29.421Z,98811.25
2022-11-21T16:10:31.166Z,98816.22
2022-11-21T16:13:32.676Z,98812.91
2022-11-21T16:16:42.932Z,98800.69
2022-11-21T16:19:45.580Z,98802.94
2022-11-21T16:22:47.955Z,98806.72
2022-11-21T16:25:54.235Z,98801.66
2022-11-21T16:28:59.449Z,98785.88
2022-11-21T16:32:00.856Z,98773.75
2022-11-21T16:35:02.244Z,98754.13
2022-11-21T16:38:07.398Z,98748.78
2022-11-21T16:41:08.772Z,98749.75
2022-11-21T16:44:15.032Z,98762.28
2022-11-21T16:47:16.545Z,98764.06
2022-11-21T16:50:18.066Z,98777.13
2022-11-21T16:53:19.519Z,98770.31
2022-11-21T16:56:20.943Z,98753.84
2022-11-21T16:59:22.324Z,98754.88
2022-11-21T17:02:23.901Z,98751.66
2022-11-21T17:05:25.401Z,98736.22
2022-11-21T17:08:28.532Z,98734.78
2022-11-21T17:11:31.224Z,98708.22
2022-11-21T17:14:33.049Z,98708.59
2022-11-21T17:17:34.971Z,98718.41
2022-11-21T17:20:36.653Z,98732.06
2022-11-21T17:23:40.771Z,98748.75
2022-11-21T17:26:42.202Z,98750.88
2022-11-21T17:29:43.691Z,98748.31
2022-11-21T17:32:45.097Z,98717.31
2022-11-21T17:35:46.608Z,98716.38
2022-11-21T17:38:48.516Z,98750.78
2022-11-21T17:41:49.888Z,98746.63
2022-11-21T17:44:51.309Z,98729.94
2022-11-21T17:47:52.726Z,98720.72
2022-11-21T17:51:03.983Z,98724.19
2022-11-21T17:54:08.281Z,98711.94
2022-11-21T17:57:09.684Z,98701.25
2022-11-21T18:00:11.636Z,98701.44
2022-11-21T18:03:13.052Z,98687.38
2022-11-21T18:06:16.919Z,98676.88
2022-11-21T18:09:18.529Z,98679.78
2022-11-21T18:12:19.972Z,98660.50
2022-11-21T18:15:21.360Z,98672.22
2022-11-21T18:18:22.911Z,98682.81
2022-11-21T18:21:26.590Z,98669.94
2022-11-21T18:24:28.619Z,98656.84
2022-11-21T18:27:30.534Z,98659.13
2022-11-21T18:30:32.663Z,98669.94
2022-11-21T18:33:35.303Z,98670.88
2022-11-21T18:36:36.768Z,98665.31
2022-11-21T18:39:38.291Z,98653.19
2022-11-21T18:42:39.681Z,98660.66
2022-11-21T18:45:41.057Z,98665.97
2022-11-21T18:49:01.487Z,98687.81
2022-11-21T18:52:04.659Z,98697.38
2022-11-21T18:55:07.514Z,98698.25
2022-11-21T18:58:08.895Z,98699.84
2022-11-21T19:01:20.202Z,98684.91
2022-11-21T19:04:21.812Z,98668.84
2022-11-21T19:07:23.268Z,98666.47
2022-11-21T19:10:42.792Z,98652.56
2022-11-21T19:13:44.709Z,98649.25
2022-11-21T19:16:46.348Z,98645.63
2022-11-21T19:19:48.440Z,98635.97
2022-11-21T19:22:50.126Z,98640.16
2022-11-21T19:25:51.528Z,98636.91
2022-11-21T19:28:52.912Z,98617.31
2022-11-21T19:31:54.305Z,98615.84
2022-11-21T19:34:55.749Z,98617.38
2022-11-21T19:37:57.157Z,98618.25
2022-11-21T19:41:17.961Z,98621.09
2022-11-21T19:44:19.699Z,98621.41
2022-11-21T19:47:21.096Z,98623.97
2022-11-21T19:50:22.505Z,98620.09
2022-11-21T19:53:25.109Z,98620.00
2022-11-21T19:56:26.721Z,98620.16
2022-11-21T19:59:31.283Z,98612.84
2022-11-21T20:02:33.102Z,98620.72
2022-11-21T20:05:34.633Z,98618.53
2022-11-21T20:08:36.114Z,98616.72
2022-11-21T20:11:40.362Z,98621.78
2022-11-21T20:14:41.848Z,98603.53
2022-11-21T20:17:43.312Z,98596.81
2022-11-21T20:20:45.006Z,98600.97
2022-11-21T20:23:47.452Z,98605.13
2022-11-21T20:26:48.931Z,98602.50
2022-11-21T20:29:50.547Z,98593.88
2022-11-21T20:32:53.405Z,98598.66
2022-11-21T20:36:01.764Z,98610.38
2022-11-21T20:39:14.256Z,98605.06
2022-11-21T20:42:15.684Z,98603.44
2022-11-21T20:48:39.988Z,98606.22
2022-11-21T20:55:05.391Z,98596.66
2022-11-21T20:58:06.759Z,98584.47
2022-11-21T21:01:10.937Z,98584.75
2022-11-21T21:04:12.461Z,98576.16
2022-11-21T21:07:13.896Z,98568.28
2022-11-21T21:10:15.655Z,98578.59
2022-11-21T21:13:20.982Z,98567.66
2022-11-21T21:16:28.991Z,98575.53
2022-11-21T21:19:30.611Z,98570.91
2022-11-21T21:22:32.241Z,98566.50
2022-11-21T21:25:33.692Z,98558.78
2022-11-21T21:28:35.157Z,98562.72
2022-11-21T21:31:36.584Z,98559.09
2022-11-21T21:34:37.984Z,98562.63
2022-11-21T21:37:39.380Z,98572.75
2022-11-21T21:40:40.784Z,98572.44
2022-11-21T21:43:42.462Z,98570.72
2022-11-21T21:46:44.414Z,98569.19
2022-11-21T21:49:45.797Z,98571.03
2022-11-21T21:52:47.447Z,98562.63
2022-11-21T21:55:48.829Z,98554.88
2022-11-21T21:58:51.179Z,98550.97
2022-11-21T22:01:52.649Z,98545.72
2022-11-21T22:04:54.053Z,98544.06
2022-11-21T22:07:55.460Z,98545.59
2022-11-21T22:11:08.598Z,98546.97
2022-11-21T22:14:14.833Z,98552.84
2022-11-21T22:17:16.609Z,98551.13
2022-11-21T22:20:17.992Z,98549.44
2022-11-21T22:23:19.863Z,98552.84
2022-11-21T22:26:21.359Z,98549.59
2022-11-21T22:29:22.810Z,98555.41
2022-11-21T22:32:24.200Z,98555.47
2022-11-21T22:35:25.578Z,98557.91
2022-11-21T22:38:27.472Z,98552.91
2022-11-21T22:41:28.883Z,98551.44
2022-11-21T22:44:30.647Z,98549.50
2022-11-21T22:47:32.176Z,98538.81
2022-11-21T22:50:33.732Z,98541.03
2022-11-21T22:53:39.968Z,98526.63
2022-11-21T22:56:41.882Z,98524.94
2022-11-21T22:59:43.445Z,98532.00
2022-11-21T23:02:44.841Z,98525.06
2022-11-21T23:05:46.235Z,98513.78
2022-11-21T23:08:48.241Z,98510.44
2022-11-21T23:11:49.719Z,98512.13
2022-11-21T23:14:51.992Z,98515.31
2022-11-21T23:17:53.379Z,98511.38
2022-11-21T23:20:54.875Z,98516.59
2022-11-21T23:23:56.430Z,98510.44
2022-11-21T23:26:57.803Z,98508.00
2022-11-21T23:29:59.215Z,98513.47
2022-11-21T23:33:00.615Z,98507.22
2022-11-21T23:36:02.019Z,98511.38
2022-11-21T23:39:04.612Z,98510.13
2022-11-21T23:42:06.071Z,98516.47
2022-11-21T23:45:08.173Z,98513.69
2022-11-21T23:48:09.850Z,98519.63
2022-11-21T23:51:11.359Z,98515.84
2022-11-21T23:54:12.808Z,98510.69
2022-11-21T23:57:14.201Z,98513.84
